Time;durP1;ratioP1;P1;durP2;ratioP2;P2;SDS_P1;SDS_P2;PMS_P1;PMS_P2;Temp;Humidity;BMP_temperature;BMP_pressure;BME280_temperature;BME280_humidity;BME280_pressure;Samples;Min_cycle;Max_cycle;Signal;HPM_P1;HPM_P2
2022/05/12 00:02:24;;;;;;;416.65;252.55;;;;;;;;;;7331494;19;154036;-19
2022/05/12 00:04:55;;;;;;;413.30;254.82;;;;;;;;;;7331848;19;153707;-18
2022/05/12 00:07:26;;;;;;;408.80;251.18;;;;;;;;;;7329503;19;161804;-20
2022/05/12 00:10:00;;;;;;;403.95;256.75;;;;;;;;;;7329842;19;162539;-19
2022/05/12 00:12:32;;;;;;;406.17;251.48;;;;;;;;;;7329866;19;154286;-19
2022/05/12 00:15:03;;;;;;;401.40;248.45;;;;;;;;;;7326168;19;153703;-19
2022/05/12 00:17:35;;;;;;;402.63;244.48;;;;;;;;;;7328646;19;161998;-20
2022/05/12 00:20:10;;;;;;;393.55;248.65;;;;;;;;;;7327402;19;162515;-19
2022/05/12 00:22:42;;;;;;;402.98;248.23;;;;;;;;;;7328611;19;154256;-19
2022/05/12 00:25:21;;;;;;;395.42;244.80;;;;;;;;;;7328326;19;153769;-20
2022/05/12 00:27:53;;;;;;;384.42;235.52;;;;;;;;;;7328011;19;161959;-19
2022/05/12 00:30:25;;;;;;;382.38;237.15;;;;;;;;;;7327954;19;162641;-18
2022/05/12 00:32:56;;;;;;;372.90;238.80;;;;;;;;;;7329100;19;154442;-18
2022/05/12 00:35:28;;;;;;;383.20;234.63;;;;;;;;;;7326498;19;153708;-19
2022/05/12 00:37:59;;;;;;;373.13;233.32;;;;;;;;;;7329073;19;162018;-19
2022/05/12 00:40:33;;;;;;;386.63;235.93;;;;;;;;;;7328559;19;162623;-19
2022/05/12 00:43:07;;;;;;;385.23;232.35;;;;;;;;;;7327666;19;154138;-18
2022/05/12 00:45:39;;;;;;;364.65;229.07;;;;;;;;;;7328098;19;153795;-18
2022/05/12 00:48:11;;;;;;;372.98;234.15;;;;;;;;;;7327383;19;161880;-18
2022/05/12 00:50:46;;;;;;;365.58;228.82;;;;;;;;;;7327485;19;162095;-17
2022/05/12 00:53:18;;;;;;;359.55;226.43;;;;;;;;;;7328621;19;154320;-18
2022/05/12 00:55:54;;;;;;;357.77;224.07;;;;;;;;;;7324459;19;154342;-19
2022/05/12 00:58:26;;;;;;;362.05;221.70;;;;;;;;;;7325786;19;162016;-18
2022/05/12 01:00:59;;;;;;;360.95;223.45;;;;;;;;;;7328317;19;162420;-19
2022/05/12 01:03:31;;;;;;;354.92;222.63;;;;;;;;;;7328229;19;154113;-19
2022/05/12 01:06:04;;;;;;;346.88;219.38;;;;;;;;;;7325781;19;153926;-19
2022/05/12 01:08:36;;;;;;;;;;;;;;;;;;7328926;19;161991;-18
2022/05/12 01:11:15;;;;;;;159.55;95.88;;;;;;;;;;7328661;19;162853;-19
2022/05/12 01:13:50;;;;;;;161.32;92.25;;;;;;;;;;7328038;19;154080;-19
2022/05/12 01:16:37;;;;;;;173.25;104.10;;;;;;;;;;7328509;19;153783;-19
2022/05/12 01:19:11;;;;;;;192.85;109.82;;;;;;;;;;7327885;19;161975;-19
2022/05/12 01:21:43;;;;;;;199.50;118.32;;;;;;;;;;7328091;19;162650;-20
2022/05/12 01:24:18;;;;;;;;;;;;;;;;;;7328591;19;154355;-21
2022/05/12 01:26:50;;;;;;;210.65;121.18;;;;;;;;;;7328369;19;154043;-20
2022/05/12 01:29:22;;;;;;;199.13;123.07;;;;;;;;;;7327688;19;161786;-19
2022/05/12 01:31:55;;;;;;;198.07;119.30;;;;;;;;;;7327806;19;162411;-19
2022/05/12 01:34:26;;;;;;;197.63;113.72;;;;;;;;;;7330014;19;154110;-18
2022/05/12 01:36:57;;;;;;;193.25;112.72;;;;;;;;;;7330865;19;153767;-19
2022/05/12 01:39:35;;;;;;;191.50;110.40;;;;;;;;;;7330364;19;162069;-19
2022/05/12 01:42:11;;;;;;;197.13;117.57;;;;;;;;;;7328365;19;163775;-19
2022/05/12 01:44:43;;;;;;;190.55;113.88;;;;;;;;;;7330433;19;154023;-18
2022/05/12 01:47:18;;;;;;;174.38;111.10;;;;;;;;;;7330704;19;153819;-18
2022/05/12 01:49:51;;;;;;;179.05;106.45;;;;;;;;;;7330303;19;161867;-19
2022/05/12 01:52:23;;;;;;;184.80;108.13;;;;;;;;;;7330343;19;162599;-20
2022/05/12 01:54:57;;;;;;;174.00;106.28;;;;;;;;;;7329812;19;153894;-18
2022/05/12 01:57:29;;;;;;;180.48;104.13;;;;;;;;;;7330162;19;153718;-19
2022/05/12 02:00:01;;;;;;;178.65;104.25;;;;;;;;;;7331625;19;161977;-18
2022/05/12 02:02:40;;;;;;;181.98;106.13;;;;;;;;;;7326914;19;162356;-19
2022/05/12 02:05:13;;;;;;;171.98;109.05;;;;;;;;;;7326922;19;154162;-19
2022/05/12 02:07:46;;;;;;;179.50;110.38;;;;;;;;;;7327824;19;153788;-19
2022/05/12 02:10:23;;;;;;;172.15;103.15;;;;;;;;;;7333201;19;161860;-18
2022/05/12 02:12:55;;;;;;;177.38;107.47;;;;;;;;;;7333537;19;162221;-18
2022/05/12 02:15:27;;;;;;;172.20;106.22;;;;;;;;;;7332481;19;154075;-19
2022/05/12 02:17:58;;;;;;;170.98;104.63;;;;;;;;;;7333629;19;153829;-19
2022/05/12 02:20:30;;;;;;;170.75;107.07;;;;;;;;;;7331611;19;162274;-18
2022/05/12 02:23:01;;;;;;;168.02;105.93;;;;;;;;;;7332846;19;162272;-19
2022/05/12 02:25:37;;;;;;;169.05;103.65;;;;;;;;;;7333243;19;154250;-18
2022/05/12 02:28:09;;;;;;;167.50;101.95;;;;;;;;;;7333204;19;153765;-18
2022/05/12 02:30:41;;;;;;;163.17;97.80;;;;;;;;;;7331726;19;161522;-19
2022/05/12 02:33:13;;;;;;;157.18;93.88;;;;;;;;;;7332697;19;162585;-18
2022/05/12 02:35:44;;;;;;;169.90;103.38;;;;;;;;;;7330861;19;154207;-18
2022/05/12 02:38:17;;;;;;;164.52;98.93;;;;;;;;;;7332951;19;154035;-18
2022/05/12 02:40:51;;;;;;;156.32;98.75;;;;;;;;;;7332849;19;162045;-18
2022/05/12 02:43:29;;;;;;;159.68;99.45;;;;;;;;;;7329180;19;162501;-18
2022/05/12 02:46:02;;;;;;;162.00;100.78;;;;;;;;;;7333192;19;154070;-18
2022/05/12 02:48:36;;;;;;;156.18;97.50;;;;;;;;;;7332918;19;153942;-18
2022/05/12 02:51:07;;;;;;;153.40;95.25;;;;;;;;;;7332864;19;161904;-18
2022/05/12 02:53:40;;;;;;;150.25;89.68;;;;;;;;;;7332651;19;162391;-17
2022/05/12 02:56:14;;;;;;;152.73;95.50;;;;;;;;;;7331542;19;154364;-17
2022/05/12 02:58:45;;;;;;;146.43;93.32;;;;;;;;;;7332719;19;153812;-18
2022/05/12 03:01:16;;;;;;;142.93;94.07;;;;;;;;;;7332041;19;162507;-17
2022/05/12 03:03:47;;;;;;;149.55;92.80;;;;;;;;;;7332048;19;162417;-17
2022/05/12 03:06:19;;;;;;;153.98;95.38;;;;;;;;;;7332474;19;154089;-18
2022/05/12 03:08:53;;;;;;;149.35;95.00;;;;;;;;;;7332523;19;153762;-19
2022/05/12 03:11:28;;;;;;;144.63;92.55;;;;;;;;;;7331837;19;162071;-19
2022/05/12 03:13:59;;;;;;;150.95;94.22;;;;;;;;;;7330854;19;162483;-19
2022/05/12 03:16:30;;;;;;;141.38;86.20;;;;;;;;;;7330727;19;153944;-18
2022/05/12 03:19:02;;;;;;;149.68;93.20;;;;;;;;;;7332074;19;153807;-18
2022/05/12 03:21:33;;;;;;;145.65;88.28;;;;;;;;;;7331934;19;162003;-18
2022/05/12 03:24:05;;;;;;;149.00;91.53;;;;;;;;;;7331611;19;162477;-18
2022/05/12 03:26:38;;;;;;;141.52;85.70;;;;;;;;;;7332147;19;154219;-18
2022/05/12 03:29:10;;;;;;;143.93;88.32;;;;;;;;;;7331883;19;153756;-19
2022/05/12 03:31:41;;;;;;;139.57;85.93;;;;;;;;;;7331535;19;162024;-19
2022/05/12 03:34:12;;;;;;;144.07;90.13;;;;;;;;;;7331580;19;162454;-18
2022/05/12 03:36:44;;;;;;;130.40;80.32;;;;;;;;;;7329967;19;154368;-18
2022/05/12 03:39:15;;;;;;;136.73;85.57;;;;;;;;;;7333909;19;153647;-18
2022/05/12 03:41:49;;;;;;;141.63;86.45;;;;;;;;;;7331089;19;162077;-19
2022/05/12 03:47:04;;;;;;;130.82;83.47;;;;;;;;;;7331249;19;154169;-20
2022/05/12 03:49:35;;;;;;;138.25;86.18;;;;;;;;;;7331184;19;153495;-19
2022/05/12 03:52:07;;;;;;;131.52;83.45;;;;;;;;;;7330960;19;161804;-20
2022/05/12 03:54:39;;;;;;;136.83;86.97;;;;;;;;;;7329684;19;162351;-19
2022/05/12 03:57:15;;;;;;;133.47;79.27;;;;;;;;;;7328005;19;153958;-19
2022/05/12 03:59:49;;;;;;;130.18;82.72;;;;;;;;;;7330221;19;153755;-20
2022/05/12 04:02:23;;;;;;;131.75;84.80;;;;;;;;;;7329952;19;161853;-20
2022/05/12 04:04:55;;;;;;;131.82;85.70;;;;;;;;;;7331133;19;162812;-18
2022/05/12 04:07:26;;;;;;;127.93;83.03;;;;;;;;;;7330852;19;154463;-19
2022/05/12 04:09:58;;;;;;;131.93;82.53;;;;;;;;;;7335297;19;153901;-18
2022/05/12 04:12:32;;;;;;;130.65;82.32;;;;;;;;;;7330412;19;161978;-19
2022/05/12 04:15:03;;;;;;;128.98;82.55;;;;;;;;;;7330382;19;162533;-19
2022/05/12 04:17:34;;;;;;;129.32;83.05;;;;;;;;;;7328459;19;154080;-19
2022/05/12 04:20:06;;;;;;;127.88;83.90;;;;;;;;;;7330759;19;153731;-19
2022/05/12 04:22:40;;;;;;;130.95;85.18;;;;;;;;;;7330232;19;162076;-19
2022/05/12 04:25:12;;;;;;;124.35;79.03;;;;;;;;;;7330372;19;162553;-18
2022/05/12 04:27:46;;;;;;;122.00;73.05;;;;;;;;;;7330481;19;154213;-19
2022/05/12 04:30:20;;;;;;;120.00;76.75;;;;;;;;;;7329241;19;153591;-18
2022/05/12 04:32:51;;;;;;;121.03;77.68;;;;;;;;;;7329613;19;162055;-19
2022/05/12 04:35:23;;;;;;;125.80;78.35;;;;;;;;;;7329824;19;162879;-18
2022/05/12 04:37:58;;;;;;;128.43;81.47;;;;;;;;;;7327910;19;154149;-19
2022/05/12 04:40:31;;;;;;;118.18;76.70;;;;;;;;;;7329976;19;153708;-19
2022/05/12 04:43:05;;;;;;;121.63;77.95;;;;;;;;;;7329463;19;161822;-18
2022/05/12 04:45:37;;;;;;;124.50;76.47;;;;;;;;;;7329608;19;162597;-18
2022/05/12 04:48:09;;;;;;;115.00;72.73;;;;;;;;;;7328562;19;154105;-19
2022/05/12 04:50:42;;;;;;;121.73;78.33;;;;;;;;;;7329568;19;153839;-20
2022/05/12 04:53:14;;;;;;;118.72;77.43;;;;;;;;;;7329096;19;162063;-18
2022/05/12 04:55:47;;;;;;;114.57;73.00;;;;;;;;;;7328915;19;162530;-18
2022/05/12 04:58:20;;;;;;;;;;;;;;;;;;7326276;19;154151;-18
2022/05/12 05:00:52;;;;;;;107.78;66.57;;;;;;;;;;7329484;19;153491;-18
2022/05/12 05:03:23;;;;;;;112.20;76.15;;;;;;;;;;7328990;19;162111;-18
2022/05/12 05:05:55;;;;;;;112.40;73.25;;;;;;;;;;7328976;19;162544;-18
2022/05/12 05:08:26;;;;;;;109.40;67.68;;;;;;;;;;7329236;19;154401;-18
2022/05/12 05:10:58;;;;;;;112.85;74.35;;;;;;;;;;7328886;19;153710;-18
2022/05/12 05:13:32;;;;;;;110.20;74.72;;;;;;;;;;7328574;19;161988;-19
2022/05/12 05:16:05;;;;;;;109.03;68.07;;;;;;;;;;7328630;19;162368;-19
2022/05/12 05:18:38;;;;;;;107.82;73.65;;;;;;;;;;7325167;19;154078;-20
2022/05/12 05:21:10;;;;;;;99.35;61.92;;;;;;;;;;7328937;19;153658;-18
2022/05/12 05:23:41;;;;;;;75.50;46.72;;;;;;;;;;7328543;19;161858;-19
2022/05/12 05:26:13;;;;;;;58.40;35.88;;;;;;;;;;7328349;19;162523;-19
2022/05/12 05:28:47;;;;;;;47.50;28.42;;;;;;;;;;7328641;19;154396;-18
2022/05/12 05:31:18;;;;;;;40.88;27.13;;;;;;;;;;7328355;19;153713;-18
2022/05/12 05:33:49;;;;;;;40.80;25.00;;;;;;;;;;7328010;19;162468;-18
2022/05/12 05:36:21;;;;;;;32.33;20.98;;;;;;;;;;7330167;19;162491;-18
2022/05/12 05:38:52;;;;;;;31.33;19.25;;;;;;;;;;7326001;19;153872;-17
2022/05/12 05:41:24;;;;;;;24.38;15.65;;;;;;;;;;7328223;19;153712;-18
2022/05/12 05:43:58;;;;;;;24.55;15.20;;;;;;;;;;7329769;19;162172;-17
2022/05/12 05:46:29;;;;;;;21.25;14.00;;;;;;;;;;7334593;19;162310;-18
2022/05/12 05:49:01;;;;;;;20.48;12.30;;;;;;;;;;7334763;19;154269;-18
2022/05/12 05:54:17;;;;;;;16.83;11.95;;;;;;;;;;7337426;19;162208;-18
2022/05/12 05:56:48;;;;;;;19.58;10.10;;;;;;;;;;7337285;19;162665;-17
2022/05/12 05:59:22;;;;;;;14.88;9.63;;;;;;;;;;7328576;19;154349;-17
2022/05/12 06:01:53;;;;;;;10.60;7.53;;;;;;;;;;7331058;19;153503;-17
2022/05/12 06:04:25;;;;;;;10.95;6.47;;;;;;;;;;7332597;19;162077;-18
2022/05/12 06:06:56;;;;;;;6.78;5.15;;;;;;;;;;7334435;19;162628;-18
2022/05/12 06:09:28;;;;;;;7.47;4.75;;;;;;;;;;7334242;19;154058;-18
2022/05/12 06:11:59;;;;;;;6.72;4.43;;;;;;;;;;7334140;19;153801;-18
2022/05/12 06:14:33;;;;;;;4.40;3.80;;;;;;;;;;7333633;19;162017;-17
2022/05/12 06:17:09;;;;;;;9.07;4.38;;;;;;;;;;7333263;19;162816;-18
2022/05/12 06:19:43;;;;;;;6.35;4.00;;;;;;;;;;7333938;19;154219;-18
2022/05/12 06:22:14;;;;;;;5.65;3.95;;;;;;;;;;7334087;19;153717;-18
2022/05/12 06:24:47;;;;;;;5.15;3.50;;;;;;;;;;7333593;19;161754;-19
2022/05/12 06:27:20;;;;;;;5.63;3.70;;;;;;;;;;7333323;19;162368;-18
2022/05/12 06:29:56;;;;;;;3.35;2.90;;;;;;;;;;7333787;19;154039;-18
2022/05/12 06:32:28;;;;;;;3.97;2.72;;;;;;;;;;7333560;19;153577;-19
2022/05/12 06:34:59;;;;;;;2.60;2.40;;;;;;;;;;7333184;19;161986;-18
2022/05/12 06:37:32;;;;;;;8.40;3.40;;;;;;;;;;7332851;19;162532;-17
2022/05/12 06:40:03;;;;;;;3.10;2.80;;;;;;;;;;7333326;19;154134;-18
2022/05/12 06:42:35;;;;;;;3.28;2.97;;;;;;;;;;7333300;19;154235;-18
2022/05/12 06:45:10;;;;;;;4.00;2.50;;;;;;;;;;7330727;19;162002;-18
2022/05/12 06:47:47;;;;;;;2.63;1.88;;;;;;;;;;7332672;19;162378;-18
2022/05/12 06:50:20;;;;;;;3.53;2.33;;;;;;;;;;7333036;19;154234;-18
2022/05/12 06:52:52;;;;;;;3.05;2.20;;;;;;;;;;7333213;19;153765;-19
2022/05/12 06:55:29;;;;;;;3.08;2.20;;;;;;;;;;7331600;19;161758;-18
2022/05/12 06:58:01;;;;;;;4.18;2.25;;;;;;;;;;7332319;19;162398;-18
2022/05/12 07:00:35;;;;;;;3.23;2.13;;;;;;;;;;7332735;19;154113;-18
2022/05/12 07:03:07;;;;;;;3.22;2.35;;;;;;;;;;7332565;19;153573;-18
2022/05/12 07:05:38;;;;;;;6.15;2.58;;;;;;;;;;7332293;19;161872;-18
2022/05/12 07:08:11;;;;;;;3.67;2.50;;;;;;;;;;7332051;19;162516;-22
2022/05/12 07:10:42;;;;;;;3.70;2.33;;;;;;;;;;7332517;19;154080;-19
2022/05/12 07:13:19;;;;;;;4.32;2.30;;;;;;;;;;7332059;19;153578;-18
2022/05/12 07:15:54;;;;;;;2.10;1.90;;;;;;;;;;7331937;19;161927;-18
2022/05/12 07:18:25;;;;;;;3.95;2.17;;;;;;;;;;7331043;19;162416;-18
2022/05/12 07:26:40;;;;;;;4.85;2.28;;;;;;;;;;7331310;19;161772;-19
2022/05/12 07:29:15;;;;;;;4.18;2.40;;;;;;;;;;7331541;19;162536;-18
2022/05/12 07:31:49;;;;;;;5.15;2.65;;;;;;;;;;7332012;19;154298;-18
2022/05/12 07:34:21;;;;;;;4.28;2.60;;;;;;;;;;7331659;19;153803;-18
2022/05/12 07:36:54;;;;;;;5.17;2.57;;;;;;;;;;7331068;19;162008;-18
2022/05/12 07:39:28;;;;;;;4.28;2.63;;;;;;;;;;7329400;19;162385;-18
2022/05/12 07:42:02;;;;;;;6.38;3.10;;;;;;;;;;7331351;19;155156;-19
2022/05/12 07:44:34;;;;;;;4.53;2.55;;;;;;;;;;7331730;19;153708;-18
2022/05/12 07:47:13;;;;;;;4.68;2.67;;;;;;;;;;7330786;19;161824;-18
2022/05/12 07:49:45;;;;;;;3.70;2.10;;;;;;;;;;7330693;19;162693;-18
2022/05/12 07:52:16;;;;;;;3.03;2.00;;;;;;;;;;7331190;19;153965;-19
2022/05/12 07:54:47;;;;;;;4.57;2.30;;;;;;;;;;7331248;19;153559;-19
2022/05/12 07:57:21;;;;;;;4.13;2.65;;;;;;;;;;7330770;19;162001;-19
2022/05/12 07:59:52;;;;;;;3.88;2.45;;;;;;;;;;7328748;19;162764;-19
2022/05/12 08:02:26;;;;;;;3.60;2.63;;;;;;;;;;7329634;19;154089;-18
2022/05/12 08:04:58;;;;;;;3.88;2.55;;;;;;;;;;7331331;19;153664;-19
2022/05/12 08:07:31;;;;;;;4.35;2.60;;;;;;;;;;7329405;19;161705;-20
2022/05/12 08:10:02;;;;;;;3.83;2.78;;;;;;;;;;7329888;19;162786;-19
2022/05/12 08:12:35;;;;;;;7.00;4.50;;;;;;;;;;7329575;19;154206;-19
2022/05/12 08:15:07;;;;;;;5.22;3.20;;;;;;;;;;7334372;19;153626;-19
2022/05/12 08:17:41;;;;;;;5.78;3.13;;;;;;;;;;7332612;19;161769;-18
2022/05/12 08:20:14;;;;;;;5.63;2.97;;;;;;;;;;7328267;19;162425;-18
2022/05/12 08:22:46;;;;;;;4.53;2.80;;;;;;;;;;7330388;19;154344;-18
2022/05/12 08:25:18;;;;;;;5.82;3.28;;;;;;;;;;7330688;19;153592;-18
2022/05/12 08:27:50;;;;;;;6.30;3.20;;;;;;;;;;7330106;19;162053;-18
2022/05/12 08:30:22;;;;;;;3.10;2.80;;;;;;;;;;7329691;19;162410;-18
2022/05/12 08:32:56;;;;;;;4.43;2.45;;;;;;;;;;7330324;19;154301;-18
2022/05/12 08:35:27;;;;;;;5.22;2.92;;;;;;;;;;7330037;19;153741;-18
2022/05/12 08:37:58;;;;;;;6.55;2.97;;;;;;;;;;7329778;19;161957;-18
2022/05/12 08:40:38;;;;;;;9.38;3.13;;;;;;;;;;7327497;19;162484;-18
2022/05/12 08:43:16;;;;;;;6.78;2.97;;;;;;;;;;7329613;19;154052;-18
2022/05/12 08:45:50;;;;;;;6.75;2.92;;;;;;;;;;7328776;19;153516;-17
2022/05/12 08:48:25;;;;;;;3.72;2.72;;;;;;;;;;7329222;19;161598;-18
2022/05/12 08:50:58;;;;;;;5.72;2.80;;;;;;;;;;7326238;19;162493;-18
2022/05/12 08:53:35;;;;;;;2.60;2.40;;;;;;;;;;7333623;19;154179;-18
2022/05/12 08:56:08;;;;;;;4.10;2.72;;;;;;;;;;7332774;19;154116;-19
2022/05/12 08:58:42;;;;;;;3.08;2.55;;;;;;;;;;7328970;19;161823;-19
2022/05/12 09:01:20;;;;;;;3.42;2.78;;;;;;;;;;7326357;19;163006;-18
2022/05/12 09:04:17;;;;;;;3.53;2.67;;;;;;;;;;7329323;19;154122;-18
2022/05/12 09:06:57;;;;;;;5.22;3.10;;;;;;;;;;7329129;19;153527;-18
2022/05/12 09:09:34;;;;;;;4.53;2.50;;;;;;;;;;7328692;19;161734;-19
2022/05/12 09:12:17;;;;;;;4.90;2.53;;;;;;;;;;7324966;19;162363;-19
2022/05/12 09:14:51;;;;;;;;;;;;;;;;;;7332972;19;154025;-18
2022/05/12 09:17:26;;;;;;;5.43;3.10;;;;;;;;;;7332756;19;153721;-19
2022/05/12 09:20:01;;;;;;;4.32;3.17;;;;;;;;;;7333420;19;161978;-19
2022/05/12 09:22:33;;;;;;;3.40;2.70;;;;;;;;;;7333434;19;162500;-19
2022/05/12 09:25:05;;;;;;;3.58;2.75;;;;;;;;;;7339393;19;154459;-19
2022/05/12 09:27:37;;;;;;;;;;;;;;;;;;7339872;19;153654;-19
2022/05/12 09:30:13;;;;;;;4.07;2.50;;;;;;;;;;7335040;19;162163;-19
2022/05/12 09:32:44;;;;;;;4.28;2.63;;;;;;;;;;7336063;19;162435;-18
2022/05/12 09:35:23;;;;;;;3.55;2.67;;;;;;;;;;7335334;19;154324;-20
2022/05/12 09:37:59;;;;;;;5.13;2.80;;;;;;;;;;7337850;19;153654;-18
2022/05/12 09:40:35;;;;;;;3.90;2.70;;;;;;;;;;7332135;19;161969;-18
2022/05/12 09:43:21;;;;;;;3.92;2.60;;;;;;;;;;7337467;19;162534;-18
2022/05/12 09:46:05;;;;;;;4.45;2.88;;;;;;;;;;7336706;19;154042;-18
2022/05/12 09:48:38;;;;;;;4.00;2.70;;;;;;;;;;7338468;19;153544;-28
2022/05/12 09:51:34;;;;;;;3.90;2.42;;;;;;;;;;7335650;19;161869;-19
2022/05/12 09:54:28;;;;;;;4.22;3.35;;;;;;;;;;7338794;19;162430;-20
2022/05/12 09:57:03;;;;;;;2.60;2.38;;;;;;;;;;7335033;19;154594;-20
2022/05/12 09:59:36;;;;;;;4.50;2.78;;;;;;;;;;7336023;19;153561;-24
2022/05/12 10:02:09;;;;;;;4.60;2.40;;;;;;;;;;7333995;19;162015;-20
2022/05/12 10:10:21;;;;;;;4.50;2.47;;;;;;;;;;7333055;19;153535;-18
2022/05/12 10:12:59;;;;;;;3.05;2.30;;;;;;;;;;7333694;19;161879;-19
2022/05/12 10:15:33;;;;;;;3.75;2.55;;;;;;;;;;7333674;19;162463;-18
2022/05/12 10:18:07;;;;;;;4.50;2.83;;;;;;;;;;7333695;19;154115;-18
2022/05/12 10:20:44;;;;;;;7.63;2.78;;;;;;;;;;7333081;19;153823;-18
2022/05/12 10:23:27;;;;;;;3.20;2.58;;;;;;;;;;7333252;19;161795;-18
2022/05/12 10:26:06;;;;;;;3.97;2.47;;;;;;;;;;7333363;19;162389;-18
2022/05/12 10:28:50;;;;;;;3.08;2.50;;;;;;;;;;7332077;19;154152;-18
2022/05/12 10:31:29;;;;;;;2.58;2.38;;;;;;;;;;7332008;19;153522;-18
2022/05/12 10:34:16;;;;;;;4.45;2.60;;;;;;;;;;7337469;19;161984;-19
2022/05/12 10:36:55;;;;;;;3.72;2.70;;;;;;;;;;7336928;19;162155;-18
2022/05/12 10:39:36;;;;;;;3.10;2.30;;;;;;;;;;7334151;19;154093;-18
2022/05/12 10:42:22;;;;;;;3.88;2.40;;;;;;;;;;7333587;19;153817;-18
2022/05/12 10:45:16;;;;;;;3.20;2.38;;;;;;;;;;7335157;19;161837;-19
2022/05/12 10:48:09;;;;;;;2.80;2.60;;;;;;;;;;7333894;19;162432;-19
2022/05/12 10:50:48;;;;;;;2.58;2.20;;;;;;;;;;7336464;19;153996;-20
2022/05/12 10:53:37;;;;;;;3.05;2.05;;;;;;;;;;7334083;19;153719;-19
2022/05/12 10:56:24;;;;;;;2.65;2.35;;;;;;;;;;7335455;19;162010;-19
2022/05/12 10:59:11;;;;;;;2.85;2.15;;;;;;;;;;7336556;19;162540;-20
2022/05/12 11:01:46;;;;;;;4.18;2.13;;;;;;;;;;7333204;19;154061;-18
2022/05/12 11:04:22;;;;;;;3.78;2.13;;;;;;;;;;7334559;19;153500;-19
2022/05/12 11:06:58;;;;;;;2.20;1.80;;;;;;;;;;7335224;19;161893;-18
2022/05/12 11:09:34;;;;;;;3.45;2.50;;;;;;;;;;7332152;19;162469;-20
2022/05/12 11:12:20;;;;;;;3.30;2.65;;;;;;;;;;7336214;19;154435;-19
2022/05/12 11:14:57;;;;;;;3.65;1.90;;;;;;;;;;7334832;19;153741;-19
2022/05/12 11:17:38;;;;;;;4.22;2.75;;;;;;;;;;7332151;19;162050;-19
2022/05/12 11:20:19;;;;;;;3.13;2.25;;;;;;;;;;7334894;19;162650;-18
2022/05/12 11:23:00;;;;;;;3.08;2.40;;;;;;;;;;7334077;19;154294;-19
2022/05/12 11:25:38;;;;;;;2.38;1.90;;;;;;;;;;7336271;19;153330;-19
2022/05/12 11:31:11;;;;;;;2.83;2.35;;;;;;;;;;7330145;19;162408;-18
2022/05/12 11:33:46;;;;;;;3.10;2.50;;;;;;;;;;7331481;19;154499;-18
2022/05/12 11:36:17;;;;;;;2.42;2.22;;;;;;;;;;7332779;19;153578;-18
2022/05/12 11:38:53;;;;;;;3.75;2.42;;;;;;;;;;7335157;19;161808;-18
2022/05/12 11:41:43;;;;;;;3.50;2.28;;;;;;;;;;7333247;19;162555;-18
2022/05/12 11:44:28;;;;;;;3.47;2.30;;;;;;;;;;7332542;19;154058;-18
2022/05/12 11:47:09;;;;;;;2.55;2.35;;;;;;;;;;7329921;19;153687;-18
2022/05/12 11:49:58;;;;;;;2.72;2.30;;;;;;;;;;7333958;19;162377;-18
2022/05/12 11:52:41;;;;;;;2.70;2.40;;;;;;;;;;7329420;19;162500;-19
2022/05/12 11:55:23;;;;;;;;;;;;;;;;;;7333472;19;154089;-18
2022/05/12 11:58:05;;;;;;;2.13;1.92;;;;;;;;;;7329449;19;153417;-18
2022/05/12 12:01:03;;;;;;;4.28;2.20;;;;;;;;;;7328394;19;162435;-18
2022/05/12 12:04:00;;;;;;;2.22;2.00;;;;;;;;;;7330888;19;162585;-18
2022/05/12 12:06:52;;;;;;;3.08;2.05;;;;;;;;;;7331054;19;155133;-18
2022/05/12 12:09:56;;;;;;;3.85;2.30;;;;;;;;;;7329715;19;153520;-18
2022/05/12 12:12:52;;;;;;;3.25;2.00;;;;;;;;;;7327224;19;162048;-18
2022/05/12 12:16:04;;;;;;;3.63;2.10;;;;;;;;;;7332148;19;162483;-18
2022/05/12 12:19:06;;;;;;;3.45;1.85;;;;;;;;;;7333079;19;154066;-20
2022/05/12 12:21:45;;;;;;;2.90;1.90;;;;;;;;;;7332067;19;153564;-18
2022/05/12 12:24:29;;;;;;;2.22;1.95;;;;;;;;;;7331743;19;161771;-18
2022/05/12 12:27:28;;;;;;;2.80;1.98;;;;;;;;;;7329874;19;162422;-17
2022/05/12 12:30:21;;;;;;;3.30;1.70;;;;;;;;;;7328718;19;153913;-17
2022/05/12 12:33:10;;;;;;;;;;;;;;;;;;7332181;19;153708;-17
2022/05/12 12:36:00;;;;;;;2.15;1.92;;;;;;;;;;7327784;19;162151;-18
2022/05/12 12:39:07;;;;;;;3.72;2.22;;;;;;;;;;7326813;19;162674;-18
2022/05/12 12:41:44;;;;;;;4.50;2.20;;;;;;;;;;7330514;19;154058;-19
2022/05/12 12:44:22;;;;;;;3.45;1.60;;;;;;;;;;7326717;19;153697;-19
2022/05/12 12:47:15;;;;;;;6.30;2.22;;;;;;;;;;7331682;19;162008;-19
2022/05/12 12:49:54;;;;;;;2.25;1.90;;;;;;;;;;7328576;19;162449;-19
2022/05/12 12:52:25;;;;;;;1.90;1.70;;;;;;;;;;7327957;19;154095;-19
2022/05/12 12:57:49;;;;;;;2.17;1.83;;;;;;;;;;7328827;19;162432;-18
2022/05/12 13:00:33;;;;;;;2.17;1.92;;;;;;;;;;7331991;19;162535;-18
2022/05/12 13:03:08;;;;;;;2.80;1.92;;;;;;;;;;7327724;19;154987;-19
2022/05/12 13:05:42;;;;;;;2.15;1.83;;;;;;;;;;7333115;19;153581;-20
2022/05/12 13:08:25;;;;;;;4.95;1.88;;;;;;;;;;7329541;19;162054;-18
2022/05/12 13:11:01;;;;;;;1.98;1.70;;;;;;;;;;7326748;19;162385;-18
2022/05/12 13:13:32;;;;;;;2.90;1.30;;;;;;;;;;7329939;19;154152;-19
2022/05/12 13:16:06;;;;;;;1.13;1.00;;;;;;;;;;7332994;19;154180;-19
2022/05/12 13:18:48;;;;;;;2.28;1.20;;;;;;;;;;7328103;19;162190;-19
2022/05/12 13:21:26;;;;;;;1.50;1.30;;;;;;;;;;7330528;19;162434;-20
2022/05/12 13:24:06;;;;;;;4.43;1.70;;;;;;;;;;7325693;19;154119;-20
2022/05/12 13:26:38;;;;;;;1.35;1.23;;;;;;;;;;7327626;19;153826;-20
2022/05/12 13:29:11;;;;;;;3.95;1.20;;;;;;;;;;7327773;19;161931;-19
2022/05/12 13:31:44;;;;;;;2.20;1.30;;;;;;;;;;7327497;19;162413;-19
2022/05/12 13:34:33;;;;;;;1.25;1.15;;;;;;;;;;7327830;19;154097;-20
2022/05/12 13:37:20;;;;;;;3.10;1.50;;;;;;;;;;7327601;19;153548;-19
2022/05/12 13:39:53;;;;;;;1.35;1.10;;;;;;;;;;7330258;19;161733;-19
2022/05/12 13:42:34;;;;;;;2.17;1.20;;;;;;;;;;7326729;19;162546;-19
2022/05/12 13:45:10;;;;;;;4.35;1.70;;;;;;;;;;7324424;19;154126;-18
2022/05/12 13:47:49;;;;;;;3.53;1.60;;;;;;;;;;7324541;19;153577;-19
2022/05/12 13:50:22;;;;;;;2.78;1.35;;;;;;;;;;7325490;19;161802;-19
2022/05/12 13:52:56;;;;;;;4.05;1.60;;;;;;;;;;7325439;19;162406;-18
2022/05/12 13:55:31;;;;;;;2.85;1.92;;;;;;;;;;7324047;19;154957;-18
2022/05/12 13:58:14;;;;;;;2.10;1.63;;;;;;;;;;7327825;19;153641;-19
2022/05/12 14:00:54;;;;;;;5.30;1.75;;;;;;;;;;7328275;19;161860;-20
2022/05/12 14:03:31;;;;;;;2.55;1.60;;;;;;;;;;7329617;19;162395;-19
2022/05/12 14:06:14;;;;;;;3.42;2.10;;;;;;;;;;7335079;19;154360;-19
2022/05/12 14:08:49;;;;;;;4.60;1.58;;;;;;;;;;7334423;19;154483;-19
2022/05/12 14:11:31;;;;;;;5.70;1.55;;;;;;;;;;7334121;19;161956;-19
2022/05/12 14:19:37;;;;;;;2.95;1.83;;;;;;;;;;7334294;19;153593;-19
2022/05/12 14:22:11;;;;;;;2.88;1.42;;;;;;;;;;7333597;19;161796;-19
2022/05/12 14:24:48;;;;;;;2.60;1.45;;;;;;;;;;7331696;19;162405;-18
2022/05/12 14:27:21;;;;;;;2.38;1.40;;;;;;;;;;7334779;19;154223;-18
2022/05/12 14:29:52;;;;;;;4.25;1.70;;;;;;;;;;7332892;19;153831;-18
2022/05/12 14:32:26;;;;;;;3.28;1.40;;;;;;;;;;7333582;19;161833;-18
2022/05/12 14:34:59;;;;;;;1.65;1.25;;;;;;;;;;7333091;19;162424;-18
2022/05/12 14:37:31;;;;;;;2.38;1.40;;;;;;;;;;7333435;19;154171;-18
2022/05/12 14:40:06;;;;;;;4.32;1.42;;;;;;;;;;7332533;19;153583;-18
2022/05/12 14:42:37;;;;;;;1.98;1.30;;;;;;;;;;7333147;19;161902;-18
2022/05/12 14:45:10;;;;;;;2.20;1.50;;;;;;;;;;7330313;19;162870;-18
2022/05/12 14:47:44;;;;;;;2.22;1.58;;;;;;;;;;7333536;19;154318;-18
2022/05/12 14:50:19;;;;;;;3.10;1.58;;;;;;;;;;7332909;19;155222;-18
2022/05/12 14:52:50;;;;;;;2.15;1.45;;;;;;;;;;7332994;19;161833;-18
2022/05/12 14:55:24;;;;;;;2.03;1.40;;;;;;;;;;7332655;19;162672;-18
2022/05/12 14:57:55;;;;;;;1.48;1.10;;;;;;;;;;7331989;19;154076;-18
2022/05/12 15:00:26;;;;;;;3.20;1.73;;;;;;;;;;7333055;19;153586;-18
2022/05/12 15:02:58;;;;;;;2.47;1.30;;;;;;;;;;7332527;19;162535;-18
2022/05/12 15:05:31;;;;;;;1.83;1.38;;;;;;;;;;7332368;19;162380;-18
2022/05/12 15:08:03;;;;;;;3.13;1.45;;;;;;;;;;7332771;19;154084;-18
2022/05/12 15:10:37;;;;;;;1.85;1.30;;;;;;;;;;7331727;19;153543;-18
2022/05/12 15:13:09;;;;;;;1.63;1.48;;;;;;;;;;7331998;19;161780;-19
2022/05/12 15:15:40;;;;;;;1.77;1.23;;;;;;;;;;7331443;19;162835;-19
2022/05/12 15:18:13;;;;;;;3.13;1.50;;;;;;;;;;7332825;19;154079;-19
2022/05/12 15:20:45;;;;;;;2.47;1.30;;;;;;;;;;7331166;19;153591;-19
2022/05/12 15:23:16;;;;;;;1.58;1.35;;;;;;;;;;7331816;19;161875;-19
2022/05/12 15:25:52;;;;;;;1.63;1.23;;;;;;;;;;7331837;19;162667;-19
2022/05/12 15:28:27;;;;;;;2.10;1.40;;;;;;;;;;7332385;19;154037;-19
2022/05/12 15:31:00;;;;;;;3.30;1.50;;;;;;;;;;7332322;19;153639;-19
2022/05/12 15:33:32;;;;;;;2.30;1.35;;;;;;;;;;7331595;19;162150;-18